Latest Coastal Weather Observations for Moruya Airport

IDN60701

Issued at 3:01 pm EST Saturday 18 April 2015 (issued every 10 minutes, with the page automatically refreshed every 10 minutes)

About coastal observations | Map of coastal stations | Coastal observations for NSW | Marine services | Other Formats
Station Details ID: 069148 Name: MORUYA AIRPORT AWS Lat: -35.90 Lon: 150.14 Height: 4.0 m
Data from the previous 72 hours. | See also: Recent months for locations in New South Wales
Date/Time
EST
Temp

°C
Wind Pressure Rain
since 9am
mm
Weather Cloud Vis
km
Sea
Height
m
Swell
Dir
 
Speed
knots
Gust
knots
hPa Trend Height
m
Period
s
Dir
18/02:30pm 22.8 NNE 3 5 1010.7 - 0.0 - - 10 - - - -
18/02:00pm 22.8 NNE 4 5 1010.8 - 0.0 - - 10 - - - -
18/01:30pm 23.3 N 5 7 1011.1 - 0.0 - - 10 - - - -
18/01:00pm 23.3 N 4 8 1011.4 - 0.0 - - 10 - - - -
18/12:30pm 22.9 NNW 5 8 1011.7 - 0.0 - - 10 - - - -
18/12:00pm 22.1 N 5 8 1012.6 - 0.0 - Mostly clear 10 - - - -
18/11:30am 21.1 N 4 8 1013.2 - 0.0 - - 10 - - - -
18/11:00am 20.2 NW 2 5 1013.6 - 0.0 - - 10 - - - -
18/10:30am 20.2 CALM 0 3 1013.5 - 0.0 - - 10 - - - -
18/10:00am 19.7 WSW 2 4 1013.8 - 0.0 - - 9 - - - -
18/09:30am 19.1 WSW 1 3 1014.0 - 0.0 - - 9 - - - -
18/08:30am 18.3 CALM 0 0 1014.4 - 14.4 - - 10 - - - -
18/08:00am 18.0 W 1 4 1014.5 - 14.4 - - 10 - - - -
18/07:30am 17.6 CALM 0 3 1014.7 - 14.4 - - 10 - - - -
18/07:06am 16.9 CALM 0 0 1014.3 - 14.4 - - 9 - - - -
18/07:00am 16.5 CALM 0 0 1014.3 - 14.4 - - 8 - - - -
18/06:45am 16.1 CALM 0 0 1014.2 - 14.4 - - 5 - - - -
18/06:30am 16.3 WSW 4 5 1014.1 - 14.4 - - 10 - - - -
18/06:00am 16.5 CALM 0 0 1013.9 - 14.4 - Cloudy 7 - - - -
18/05:30am 16.7 WSW 4 5 1013.8 - 14.4 - - 10 - - - -
18/05:16am 16.8 CALM 0 3 1014.0 - 14.4 - - 7 - - - -
18/05:00am 16.9 CALM 0 0 1013.8 - 14.4 - - 5 - - - -
18/04:56am 16.7 CALM 0 0 1013.8 - 14.4 - - 5 - - - -
18/04:30am 16.9 CALM 0 0 1013.9 - 14.4 - - 9 - - - -
18/04:00am 17.1 CALM 0 0 1014.3 - 14.4 - - 10 - - - -
18/03:30am 17.3 NNW 3 6 1014.3 - 14.4 - - 10 - - - -
18/03:00am 17.4 NNW 4 6 1014.4 - 14.4 Recent precip. Mostly cloudy 10 - - - -
18/02:30am 17.5 N 4 6 1015.1 - 14.2 - - 10 - - - -
18/02:00am 17.6 N 3 5 1015.8 - 14.2 - - 10 - - - -
18/01:30am 17.6 NNW 4 5 1016.5 - 14.2 - - 10 - - - -
18/01:00am 17.7 NNW 5 6 1017.2 - 14.2 - - 10 - - - -
18/12:30am 17.6 NNW 3 4 1017.2 - 14.2 - Partly cloudy 10 - - - -
 
Date/Time
EST
Temp

°C
Wind Pressure Rain
since 9am
mm
Weather Cloud Vis
km
Sea
Height
m
Swell
Dir
 
Speed
knots
Gust
knots
hPa Trend Height
m
Period
s
Dir
17/11:30pm 17.9 N 4 6 1018.1 - 14.2 - Partly cloudy 10 - - - -
17/11:05pm 17.9 N 4 7 1018.2 - 14.2 - Partly cloudy 10 - - - -
17/11:00pm 17.9 N 5 7 1018.3 - 14.2 - Partly cloudy 10 - - - -
17/10:30pm 18.0 NNW 5 8 1018.6 - 14.2 - Partly cloudy 10 - - - -
17/10:00pm 17.9 N 5 7 1019.0 - 14.2 - Cloudy 10 - - - -
17/09:37pm 17.9 N 5 6 1019.0 - 14.2 - Cloudy 10 - - - -
17/09:30pm 17.9 N 5 8 1018.9 - 14.2 - Cloudy 7 - - - -
17/09:16pm 17.9 N 5 7 1018.9 - 14.2 - Cloudy 5 - - - -
17/09:00pm 17.9 NNE 4 6 1019.1 - 14.2 - Cloudy 10 - - - -
17/08:30pm 17.9 N 5 8 1019.7 - 14.2 - Partly cloudy 10 - - - -
17/08:00pm 17.8 N 4 6 1019.7 - 14.2 - Partly cloudy 10 - - - -
17/07:30pm 17.6 CALM 0 2 1019.6 - 14.0 - Partly cloudy 10 - - - -
17/07:00pm 17.6 WNW 1 4 1019.5 - 14.0 - Partly cloudy 10 - - - -
17/06:30pm 17.6 CALM 0 0 1019.5 - 14.0 - Partly cloudy 10 - - - -
17/06:23pm 17.7 CALM 0 0 1019.5 - 14.0 - Partly cloudy 10 - - - -
17/06:22pm 17.6 CALM 0 0 1019.5 - 14.0 - Partly cloudy 10 - - - -
17/06:00pm 17.7 CALM 0 0 1019.5 - 13.8 Recent precip. Partly cloudy 10 - - - -
17/05:30pm 17.8 CALM 0 0 1019.5 - 13.6 - Cloudy 10 - - - -
17/05:00pm 17.9 CALM 0 3 1019.4 - 13.6 - Partly cloudy 10 - - - -
17/04:30pm 18.1 WNW 2 3 1019.7 - 13.6 - Partly cloudy 10 - - - -
17/04:00pm 18.1 NW 3 5 1020.1 - 13.4 - Partly cloudy 9 - - - -
17/03:30pm 18.1 NNE 3 5 1020.4 - 13.2 - Partly cloudy 8 - - - -
17/03:00pm 18.1 NE 6 8 1020.8 - 13.0 Rain Cloudy 7 - - - -
17/02:30pm 17.7 NE 1 4 1021.2 - 12.6 - Partly cloudy 4 - - - -
17/02:00pm 17.6 ENE 1 3 1021.6 - 11.8 - Partly cloudy 4 - - - -
17/01:30pm 17.7 E 4 6 1021.9 - 10.2 - Partly cloudy 4 - - - -
17/01:01pm 17.6 ENE 5 6 1022.3 - 9.4 - Partly cloudy 5 - - - -
17/01:00pm 17.5 ENE 5 6 1022.3 - 9.4 - Partly cloudy 6 - - - -
17/12:30pm 17.4 CALM 0 0 1022.9 - 8.2 - Partly cloudy 4 - - - -
17/12:00pm 17.4 CALM 0 0 1023.6 - 5.8 Rain Cloudy 4 - - - -
17/11:56am 17.4 CALM 0 0 1023.7 - 5.6 - Partly cloudy 4 - - - -
17/11:36am 17.4 CALM 0 0 1023.9 - 4.6 - Partly cloudy 5 - - - -
17/11:30am 17.4 CALM 0 1 1024.0 - 4.6 - Partly cloudy 7 - - - -
17/11:26am 17.3 NNW 1 3 1024.0 - 4.4 - Partly cloudy 8 - - - -
17/11:23am 17.3 NNW 1 4 1024.1 - 4.4 - Partly cloudy 8 - - - -
17/11:00am 17.3 W 1 3 1024.4 - 3.8 - Partly cloudy 4 - - - -
17/10:30am 17.0 CALM 0 3 1024.7 - 2.6 - Partly cloudy 3 - - - -
17/10:25am 17.3 CALM 0 0 1024.8 - 2.4 - Partly cloudy 3 - - - -
17/10:10am 17.1 CALM 0 0 1024.9 - 2.0 - Partly cloudy 5 - - - -
17/10:00am 17.1 CALM 0 0 1025.0 - 1.8 - Partly cloudy 7 - - - -
17/09:54am 17.1 CALM 0 0 1025.1 - 1.6 - Partly cloudy 6 - - - -
17/09:32am 16.9 WSW 2 4 1025.1 - 1.0 - Cloudy 5 - - - -
17/09:30am 16.9 WSW 1 4 1025.1 - 1.0 - Cloudy 6 - - - -
17/09:06am 17.0 WSW 1 3 1025.2 - 0.0 - Partly cloudy 5 - - - -
17/09:00am 17.0 W 3 4 1025.2 - 5.4 Rain Mostly cloudy 6 - - - -
17/08:30am 16.9 WSW 4 5 1025.3 - 4.6 - - 8 - - - -
17/08:00am 16.6 W 3 4 1025.0 - 4.0 - Partly cloudy 7 - - - -
17/07:54am 16.5 W 3 4 1025.0 - 4.0 - Partly cloudy 7 - - - -
17/07:30am 16.5 CALM 0 3 1024.8 - 3.4 - Partly cloudy 5 - - - -
17/07:29am 16.5 CALM 0 2 1024.8 - 3.4 - Partly cloudy 5 - - - -
17/07:28am 16.4 CALM 0 0 1024.8 - 3.4 - Partly cloudy 6 - - - -
17/07:10am 16.4 WSW 2 4 1024.8 - 3.0 - Partly cloudy 5 - - - -
17/07:09am 16.4 WSW 2 4 1024.8 - 2.8 - Partly cloudy 6 - - - -
17/07:00am 16.3 WSW 3 4 1024.7 - 2.6 - Partly cloudy 6 - - - -
17/06:49am 16.3 WSW 4 6 1024.5 - 2.2 - Partly cloudy 5 - - - -
17/06:30am 16.4 WSW 4 5 1024.5 - 1.6 - Partly cloudy 8 - - - -
17/06:00am 16.5 WSW 4 6 1024.3 - 1.4 Rain Cloudy 8 - - - -
17/05:30am 16.6 W 4 5 1024.2 - 1.0 - Cloudy 10 - - - -
17/05:00am 16.7 W 3 4 1023.8 - 1.0 - Cloudy 9 - - - -
17/04:30am 16.7 W 3 5 1023.7 - 1.0 - Cloudy 8 - - - -
17/04:00am 16.8 WNW 4 6 1023.6 - 1.0 - Partly cloudy 8 - - - -
17/03:30am 17.2 SW 3 4 1023.4 - 0.8 - Partly cloudy 9 - - - -
17/03:00am 17.8 SSE 5 7 1023.5 - 0.6 - Cloudy 10 - - - -
17/02:30am 17.5 SSE 6 9 1023.8 - 0.6 - Cloudy 10 - - - -
17/02:00am 17.3 S 4 6 1024.4 - 0.6 - Partly cloudy 10 - - - -
17/01:30am 17.3 SW 4 6 1024.6 - 0.6 - Partly cloudy 10 - - - -
17/01:00am 17.7 SSW 6 8 1024.9 - 0.6 - Partly cloudy 10 - - - -
17/12:30am 18.1 SE 6 8 1024.8 - 0.6 - Cloudy 10 - - - -
17/12:00am 18.1 SSE 6 8 1024.8 - 0.6 Rain Mostly cloudy 8 - - - -
 
Date/Time
EST
Temp

°C
Wind Pressure Rain
since 9am
mm
Weather Cloud Vis
km
Sea
Height
m
Swell
Dir
 
Speed
knots
Gust
knots
hPa Trend Height
m
Period
s
Dir
16/11:30pm 18.4 ESE 5 8 1025.0 - 0.4 - Cloudy 10 - - - -
16/11:00pm 18.8 SE 5 7 1024.8 - 0.4 - Partly cloudy 9 - - - -
16/10:30pm 18.5 SE 5 7 1024.7 - 0.2 - Partly cloudy 10 - - - -
16/10:00pm 18.3 SE 6 7 1024.9 - 0.2 - Cloudy 8 - - - -
16/09:30pm 18.5 SE 5 7 1025.0 - 0.0 - Partly cloudy 9 - - - -
16/09:00pm 19.3 SE 6 9 1024.6 - 0.0 - Mostly cloudy 10 - - - -
16/08:30pm 19.6 SE 7 9 1024.2 - 0.0 - Partly cloudy 10 - - - -
16/08:00pm 19.5 SE 8 11 1023.8 - 0.0 - Partly cloudy 10 - - - -
16/07:30pm 19.7 ESE 7 10 1023.9 - 0.0 - Partly cloudy 10 - - - -
16/07:00pm 19.6 SSE 7 10 1023.5 - 0.0 - Partly cloudy 10 - - - -
16/06:30pm 19.5 SSE 5 9 1023.2 - 0.0 - Partly cloudy 10 - - - -
16/06:00pm 19.8 SE 7 11 1023.1 - 0.0 - Cloudy 10 - - - -
16/05:30pm 20.2 ESE 7 9 1022.6 - 0.0 - Partly cloudy 10 - - - -
16/05:00pm 20.4 ESE 7 10 1022.2 - 0.0 - Partly cloudy 10 - - - -
16/04:30pm 20.5 ESE 7 9 1021.9 - 0.0 - Partly cloudy 10 - - - -
16/04:00pm 20.6 ESE 7 9 1021.5 - 0.0 - Partly cloudy 10 - - - -
16/03:30pm 20.6 ESE 7 9 1021.4 - 0.0 - Partly cloudy 10 - - - -
16/03:00pm 20.8 ESE 8 10 1021.2 - 0.0 - Cloudy 10 - - - -
16/02:30pm 21.6 ESE 7 9 1021.4 - 0.0 - Partly cloudy 10 - - - -
16/02:00pm 21.5 ESE 7 9 1021.4 - 0.0 - Partly cloudy 10 - - - -
16/01:30pm 22.1 ESE 7 10 1021.0 - 0.0 - - 10 - - - -
16/01:00pm 21.7 ESE 7 9 1021.2 - 0.0 - - 10 - - - -
16/12:30pm 22.1 ESE 9 12 1021.3 - 0.0 - - 10 - - - -
16/12:00pm 22.4 SSE 9 11 1021.6 - 0.0 - - 10 - - - -
16/11:30am 22.2 SE 9 12 1021.8 - 0.0 - - 10 - - - -
16/11:00am 22.4 SE 9 12 1022.0 - 0.0 - - 10 - - - -
16/10:30am 22.6 SSE 8 12 1021.9 - 0.0 - - 10 - - - -
16/10:00am 22.2 S 9 14 1021.9 - 0.0 - - 10 - - - -
16/09:30am 22.3 S 8 11 1021.7 - 0.0 - - 10 - - - -
16/09:00am 21.9 SSE 11 15 1021.7 - 0.0 - - 10 - - - -
16/08:30am 22.0 S 8 13 1021.0 - 0.0 - - 10 - - - -
16/08:00am 21.8 SW 7 9 1020.6 - 0.0 - - 10 - - - -
16/07:30am 23.5 WNW 7 11 1019.6 - 0.0 - - 10 - - - -
16/07:00am 22.3 NW 7 11 1019.1 - 0.0 - - 10 - - - -
16/06:30am 22.6 NW 7 11 1018.9 - 0.0 - - 10 - - - -
16/06:00am 22.9 NW 7 11 1018.7 - 0.0 - - 10 - - - -
16/05:30am 22.7 WNW 7 13 1018.3 - 0.0 - - 7 - - - -
16/05:00am 21.9 NW 5 9 1017.9 - 0.0 - - 10 - - - -
16/04:30am 22.5 NW 6 11 1017.9 - 0.0 - - 10 - - - -
16/04:00am 21.4 NW 6 11 1017.7 - 0.0 - - 10 - - - -
16/03:30am 21.0 NW 6 10 1017.6 - 0.0 - - 10 - - - -
16/03:00am 18.5 NNW 7 10 1017.7 - 0.0 - Mostly clear 10 - - - -
16/02:30am 14.4 NW 5 6 1018.1 - 0.0 - - 10 - - - -
16/02:00am 14.1 NNW 5 6 1018.4 - 0.0 - - 8 - - - -
16/01:30am 14.0 NW 3 4 1018.7 - 0.0 - - 8 - - - -
16/01:25am 13.9 NW 1 4 1018.8 - 0.0 - - 8 - - - -
16/01:00am 14.2 CALM 0 2 1019.1 - 0.0 - - 6 - - - -
16/12:59am 14.3 CALM 0 2 1019.1 - 0.0 - - 5 - - - -
16/12:30am 14.4 NW 2 4 1019.4 - 0.0 - - 9 - - - -
16/12:10am 14.7 N 2 5 1019.5 - 0.0 - - 8 - - - -
16/12:00am 14.8 CALM 0 3 1019.6 - 0.0 - - 5 - - - -
 
Date/Time
EST
Temp

°C
Wind Pressure Rain
since 9am
mm
Weather Cloud Vis
km
Sea
Height
m
Swell
Dir
 
Speed
knots
Gust
knots
hPa Trend Height
m
Period
s
Dir
15/11:58pm 14.7 CALM 0 0 1019.6 - 0.0 - - 5 - - - -
15/11:30pm 15.0 CALM 0 0 1020.0 - 0.0 - - 7 - - - -
15/11:28pm 15.1 CALM 0 0 1020.1 - 0.0 - - 7 - - - -
15/11:10pm 15.2 NW 3 4 1020.2 - 0.0 - - 5 - - - -
15/11:00pm 14.8 NW 2 4 1020.3 - 0.0 - - 6 - - - -
15/10:57pm 14.8 NW 1 4 1020.2 - 0.0 - - 7 - - - -
15/10:39pm 15.1 NW 5 6 1020.4 - 0.0 - - 5 - - - -
15/10:30pm 15.4 NW 5 6 1020.6 - 0.0 - - 8 - - - -
15/10:20pm 15.3 NW 5 6 1020.6 - 0.0 - - 7 - - - -
15/10:00pm 14.4 WNW 1 4 1020.8 - 0.0 - - 4 - - - -
15/09:30pm 14.8 CALM 0 0 1020.9 - 0.0 - - 2 - - - -
15/09:00pm 15.1 CALM 0 0 1020.8 - 0.0 - - 4 - - - -
15/08:30pm 15.4 CALM 0 0 1021.0 - 0.0 - - 4 - - - -
15/08:00pm 16.1 CALM 0 0 1021.0 - 0.0 - - 0.5 - - - -
15/07:30pm 16.7 CALM 0 1 1021.0 - 0.0 - - 5 - - - -
15/07:28pm 16.5 CALM 0 1 1021.0 - 0.0 - - 5 - - - -
15/07:26pm 16.7 CALM 0 1 1020.9 - 0.0 - - 6 - - - -
15/07:05pm 16.8 CALM 0 2 1021.1 - 0.0 - - 5 - - - -
15/07:00pm 16.8 WNW 1 4 1021.1 - 0.0 - - 6 - - - -
15/06:50pm 17.4 WNW 4 6 1021.1 - 0.0 - - 7 - - - -
15/06:30pm 17.6 NW 1 3 1021.0 - 0.0 - - 5 - - - -
15/06:23pm 18.0 NW 2 3 1021.1 - 0.0 - - 7 - - - -
15/06:00pm 18.5 CALM 0 0 1020.9 - 0.0 - - 4 - - - -
15/05:30pm 20.1 CALM 0 0 1020.8 - 0.0 - - 4 - - - -
15/05:07pm 21.6 N 2 3 1021.0 - 0.0 - - 5 - - - -
15/05:00pm 21.7 N 2 4 1020.9 - 0.0 - Partly cloudy 7 - - - -
15/04:30pm 22.3 NE 4 4 1020.8 - 0.0 - - 10 - - - -
15/04:00pm 22.5 NE 5 7 1020.6 - 0.0 - - 10 - - - -
15/03:30pm 22.1 ESE 5 5 1020.8 - 0.0 - Partly cloudy 10 - - - -

Other Formats:

Comma delimited format used in spreadsheet applications
http://www.bom.gov.au/fwo/IDN60701/IDN60701.95937.axf

JavaScript Object Notation format (JSON) in row-major order
http://www.bom.gov.au/fwo/IDN60701/IDN60701.95937.json